createdAt,value
2018-09-05T00:00:48.883Z,21.17
2018-09-05T00:03:16.001Z,20.07
2018-09-05T00:05:43.144Z,21.70
2018-09-05T00:08:10.335Z,22.93
2018-09-05T00:10:37.452Z,22.30
2018-09-05T00:13:05.129Z,20.27
2018-09-05T00:15:32.246Z,21.53
2018-09-05T00:17:59.404Z,25.20
2018-09-05T00:20:26.550Z,22.50
2018-09-05T00:22:53.660Z,21.93
2018-09-05T00:25:20.797Z,20.57
2018-09-05T00:27:47.969Z,19.07
2018-09-05T00:30:15.116Z,20.07
2018-09-05T00:32:42.253Z,24.50
2018-09-05T00:35:09.560Z,22.17
2018-09-05T00:37:36.696Z,23.13
2018-09-05T00:40:04.228Z,21.30
2018-09-05T00:42:31.397Z,20.13
2018-09-05T00:44:58.595Z,22.40
2018-09-05T00:47:25.803Z,22.40
2018-09-05T00:49:57.504Z,20.60
2018-09-05T00:52:24.668Z,20.30
2018-09-05T00:54:51.800Z,22.67
2018-09-05T00:57:19.964Z,20.43
2018-09-05T00:59:47.104Z,19.50
2018-09-05T01:02:14.241Z,23.97
2018-09-05T01:04:41.452Z,23.13
2018-09-05T01:07:19.354Z,18.97
2018-09-05T01:09:46.487Z,23.03
2018-09-05T01:12:13.557Z,20.33
2018-09-05T01:14:40.697Z,21.70
2018-09-05T01:17:07.852Z,18.43
2018-09-05T01:19:34.953Z,20.37
2018-09-05T01:22:02.129Z,20.10
2018-09-05T01:24:29.338Z,18.63
2018-09-05T01:26:56.451Z,22.40
2018-09-05T01:29:23.636Z,19.77
2018-09-05T01:31:50.804Z,17.67
2018-09-05T01:34:18.731Z,20.17
2018-09-05T01:36:45.907Z,17.37
2018-09-05T01:39:13.023Z,20.17
2018-09-05T01:41:40.248Z,18.20
2018-09-05T01:44:07.395Z,21.77
2018-09-05T01:46:34.551Z,24.07
2018-09-05T01:49:01.736Z,23.50
2018-09-05T01:51:32.061Z,22.33
2018-09-05T01:53:59.152Z,24.43
2018-09-05T01:56:26.280Z,21.67
2018-09-05T01:58:53.397Z,26.33
2018-09-05T02:01:20.536Z,24.87
2018-09-05T02:03:47.693Z,25.60
2018-09-05T02:06:14.814Z,22.63
2018-09-05T02:08:41.981Z,23.73
2018-09-05T02:11:09.289Z,20.67
2018-09-05T02:13:36.554Z,25.10
2018-09-05T02:16:03.675Z,20.60
2018-09-05T02:18:30.816Z,22.97
2018-09-05T02:20:58.008Z,24.67
2018-09-05T02:23:25.157Z,31.60
2018-09-05T02:25:52.456Z,21.30
2018-09-05T02:28:19.549Z,23.40
2018-09-05T02:30:46.714Z,24.23
2018-09-05T02:33:13.852Z,22.40
2018-09-05T02:35:40.993Z,28.30
2018-09-05T02:38:08.192Z,23.50
2018-09-05T02:40:35.378Z,24.20
2018-09-05T02:43:02.446Z,24.60
2018-09-05T02:45:29.655Z,22.33
2018-09-05T02:47:56.784Z,26.30
2018-09-05T02:50:23.940Z,22.13
2018-09-05T02:52:51.245Z,20.50
2018-09-05T02:55:24.129Z,20.83
2018-09-05T02:57:51.294Z,21.70
2018-09-05T03:00:18.360Z,19.33
2018-09-05T03:02:45.521Z,18.73
2018-09-05T03:05:12.633Z,19.30
2018-09-05T03:07:39.763Z,22.93
2018-09-05T03:10:06.983Z,20.33
2018-09-05T03:12:34.132Z,20.00
2018-09-05T03:15:01.188Z,20.83
2018-09-05T03:17:28.466Z,20.00
2018-09-05T03:19:55.557Z,21.67
2018-09-05T03:22:22.835Z,22.40
2018-09-05T03:24:50.269Z,23.37
2018-09-05T03:27:17.357Z,26.13
2018-09-05T03:29:44.576Z,21.93
2018-09-05T03:32:11.794Z,27.30
2018-09-05T03:34:38.924Z,24.77
2018-09-05T03:37:06.164Z,28.83
2018-09-05T03:39:33.250Z,28.70
2018-09-05T03:42:00.389Z,22.73
2018-09-05T03:44:27.472Z,24.10
2018-09-05T03:46:54.624Z,28.53
2018-09-05T03:49:21.780Z,25.80
2018-09-05T03:51:49.064Z,24.07
2018-09-05T03:54:16.240Z,26.13
2018-09-05T03:56:43.381Z,32.90
2018-09-05T03:59:10.564Z,23.97
2018-09-05T04:01:37.673Z,25.37
2018-09-05T04:04:05.015Z,24.73
2018-09-05T04:06:32.139Z,31.57
2018-09-05T04:08:59.274Z,28.63
2018-09-05T04:11:26.519Z,30.00
2018-09-05T04:13:53.667Z,27.20
2018-09-05T04:16:20.876Z,32.43
2018-09-05T04:18:48.220Z,26.73
2018-09-05T04:21:15.403Z,27.30
2018-09-05T04:23:45.264Z,25.77
2018-09-05T04:26:13.161Z,26.80
2018-09-05T04:28:40.471Z,24.27
2018-09-05T04:31:08.847Z,30.53
2018-09-05T04:33:35.972Z,29.87
2018-09-05T04:36:03.123Z,29.67
2018-09-05T04:38:30.256Z,30.87
2018-09-05T04:40:57.406Z,34.00
2018-09-05T04:43:24.508Z,29.47
2018-09-05T04:45:51.629Z,29.97
2018-09-05T04:48:19.173Z,24.70
2018-09-05T04:50:46.386Z,31.27
2018-09-05T04:53:13.544Z,26.33
2018-09-05T04:55:40.774Z,27.13
2018-09-05T04:58:07.918Z,25.57
2018-09-05T05:00:35.071Z,32.30
2018-09-05T05:03:02.212Z,30.53
2018-09-05T05:05:29.438Z,29.10
2018-09-05T05:07:56.493Z,32.70
2018-09-05T05:10:23.680Z,36.90
2018-09-05T05:12:50.779Z,40.87
2018-09-05T05:15:18.025Z,34.53
2018-09-05T05:17:45.174Z,43.93
2018-09-05T05:20:12.330Z,41.03
2018-09-05T05:22:39.561Z,25.17
2018-09-05T05:25:06.789Z,25.77
2018-09-05T05:27:33.996Z,29.00
2018-09-05T05:30:01.168Z,24.40
2018-09-05T05:32:28.356Z,24.17
2018-09-05T05:34:55.457Z,24.20
2018-09-05T05:37:22.633Z,22.97
2018-09-05T05:39:49.774Z,19.50
2018-09-05T05:42:17.957Z,21.50
2018-09-05T05:44:45.245Z,20.23
2018-09-05T05:47:12.397Z,18.90
2018-09-05T05:49:39.597Z,19.90
2018-09-05T05:52:06.804Z,20.33
2018-09-05T05:54:33.945Z,18.63
2018-09-05T05:57:01.111Z,17.00
2018-09-05T05:59:28.278Z,18.47
2018-09-05T06:01:55.443Z,19.10
2018-09-05T06:04:22.728Z,18.47
2018-09-05T06:06:49.819Z,17.00
2018-09-05T06:09:17.048Z,17.90
2018-09-05T06:11:44.352Z,16.73
2018-09-05T06:14:11.437Z,17.90
2018-09-05T06:16:38.575Z,18.50
2018-09-05T06:19:05.775Z,17.70
2018-09-05T06:21:32.932Z,17.63
2018-09-05T06:24:00.129Z,16.37
2018-09-05T06:26:27.313Z,16.53
2018-09-05T06:28:54.463Z,15.67
2018-09-05T06:31:21.800Z,17.20
2018-09-05T06:33:48.848Z,16.23
2018-09-05T06:36:16.012Z,17.47
2018-09-05T06:38:43.233Z,16.97
2018-09-05T06:41:10.349Z,19.70
2018-09-05T06:43:37.469Z,16.43
2018-09-05T06:46:04.740Z,17.30
2018-09-05T06:48:31.869Z,19.63
2018-09-05T06:51:05.702Z,19.40
2018-09-05T06:53:32.916Z,20.30
2018-09-05T06:56:00.215Z,20.67
2018-09-05T06:58:27.508Z,20.50
2018-09-05T07:00:54.644Z,21.10
2018-09-05T07:03:22.408Z,18.47
2018-09-05T07:05:49.720Z,18.53
2018-09-05T07:08:16.836Z,21.30
2018-09-05T07:10:44.109Z,21.10
2018-09-05T07:13:11.304Z,21.80
2018-09-05T07:15:38.440Z,22.27
2018-09-05T07:18:05.609Z,22.23
2018-09-05T07:20:32.758Z,24.57
2018-09-05T07:22:59.856Z,25.40
2018-09-05T07:25:27.131Z,25.90
2018-09-05T07:27:54.352Z,27.00
2018-09-05T07:30:21.637Z,25.93
2018-09-05T07:32:49.039Z,27.40
2018-09-05T07:35:16.153Z,25.83
2018-09-05T07:37:43.365Z,27.20
2018-09-05T07:40:10.593Z,28.50
2018-09-05T07:42:37.732Z,27.00
2018-09-05T07:45:05.013Z,24.33
2018-09-05T07:47:32.196Z,26.77
2018-09-05T07:49:59.309Z,24.10
2018-09-05T07:52:26.642Z,25.87
2018-09-05T07:54:54.006Z,24.90
2018-09-05T07:57:21.141Z,26.63
2018-09-05T07:59:48.478Z,23.53
2018-09-05T08:02:15.614Z,26.73
2018-09-05T08:04:42.848Z,24.90
2018-09-05T08:07:10.039Z,25.03
2018-09-05T08:09:37.213Z,28.10
2018-09-05T08:12:04.527Z,25.83
2018-09-05T08:14:31.760Z,27.17
2018-09-05T08:16:58.873Z,27.57
2018-09-05T08:19:26.136Z,27.13
2018-09-05T08:21:53.404Z,27.73
2018-09-05T08:24:20.638Z,27.73
2018-09-05T08:26:47.771Z,28.27
2018-09-05T08:29:15.036Z,28.03
2018-09-05T08:31:49.155Z,27.87
2018-09-05T08:34:16.509Z,30.03
2018-09-05T08:36:43.876Z,30.00
2018-09-05T08:39:12.901Z,31.10
2018-09-05T08:41:40.131Z,30.87
2018-09-05T08:44:07.421Z,31.30
2018-09-05T08:46:34.469Z,33.40
2018-09-05T08:49:01.645Z,33.57
2018-09-05T08:51:28.748Z,32.00
2018-09-05T08:53:56.088Z,29.27
2018-09-05T08:56:23.365Z,30.40
2018-09-05T08:58:50.509Z,30.43
2018-09-05T09:01:17.708Z,32.40
2018-09-05T09:03:44.868Z,30.40
2018-09-05T09:06:11.969Z,29.23
2018-09-05T09:08:39.136Z,30.03
2018-09-05T09:11:06.348Z,28.80
2018-09-05T09:13:33.480Z,29.63
2018-09-05T09:16:00.622Z,28.03
2018-09-05T09:18:27.859Z,26.93
2018-09-05T09:20:54.955Z,27.53
2018-09-05T09:23:22.200Z,25.20
2018-09-05T09:25:49.508Z,25.83
2018-09-05T09:28:16.643Z,26.67
2018-09-05T09:30:43.883Z,24.10
2018-09-05T09:33:11.038Z,24.37
2018-09-05T09:35:38.278Z,23.63
2018-09-05T09:38:05.489Z,21.13
2018-09-05T09:40:32.651Z,21.20
2018-09-05T09:42:59.809Z,18.17
2018-09-05T09:45:26.949Z,17.20
2018-09-05T09:47:54.100Z,14.70
2018-09-05T09:50:21.489Z,15.40
2018-09-05T09:52:48.626Z,17.10
2018-09-05T09:55:15.720Z,19.67
2018-09-05T09:57:49.779Z,17.43
2018-09-05T10:00:22.748Z,18.33
2018-09-05T10:02:55.858Z,17.50
2018-09-05T10:05:28.499Z,17.40
2018-09-05T10:08:01.230Z,17.97
2018-09-05T10:10:34.189Z,15.83
2018-09-05T10:13:06.976Z,16.53
2018-09-05T10:15:39.761Z,17.03
2018-09-05T10:18:12.568Z,16.30
2018-09-05T10:20:39.696Z,14.43
2018-09-05T10:23:06.916Z,16.00
2018-09-05T10:25:34.181Z,21.60
2018-09-05T10:28:01.332Z,15.67
2018-09-05T10:30:28.500Z,14.43
2018-09-05T10:32:55.624Z,15.90
2018-09-05T10:35:23.428Z,13.70
2018-09-05T10:37:50.729Z,15.83
2018-09-05T10:40:18.125Z,14.67
2018-09-05T10:42:45.240Z,15.67
2018-09-05T10:45:12.600Z,13.70
2018-09-05T10:47:39.709Z,15.27
2018-09-05T10:50:06.831Z,15.80
2018-09-05T10:52:34.176Z,16.33
2018-09-05T10:55:01.273Z,14.10
2018-09-05T10:57:28.486Z,14.60
2018-09-05T10:59:55.740Z,15.70
2018-09-05T11:02:22.990Z,16.50
2018-09-05T11:04:50.256Z,16.87
2018-09-05T11:07:17.680Z,15.73
2018-09-05T11:09:44.813Z,15.57
2018-09-05T11:12:12.051Z,17.17
2018-09-05T11:14:39.241Z,16.30
2018-09-05T11:17:06.371Z,15.17
2018-09-05T11:19:34.532Z,14.67
2018-09-05T11:22:01.724Z,16.80
2018-09-05T11:24:28.939Z,16.43
2018-09-05T11:26:56.201Z,13.83
2018-09-05T11:29:23.472Z,12.43
2018-09-05T11:31:50.750Z,14.40
2018-09-05T11:34:18.279Z,13.00
2018-09-05T11:36:45.568Z,13.47
2018-09-05T11:39:13.527Z,17.30
2018-09-05T11:41:40.699Z,14.03
2018-09-05T11:44:07.882Z,13.47
2018-09-05T11:46:35.397Z,14.10
2018-09-05T11:49:02.633Z,13.50
2018-09-05T11:51:29.958Z,13.50
2018-09-05T11:53:57.056Z,14.17
2018-09-05T11:56:24.206Z,16.20
2018-09-05T11:58:51.309Z,13.07
2018-09-05T12:01:18.509Z,13.40
2018-09-05T12:03:45.825Z,12.57
2018-09-05T12:06:12.957Z,12.80
2018-09-05T12:08:40.089Z,13.53
2018-09-05T12:11:07.304Z,12.93
2018-09-05T12:13:34.449Z,13.33
2018-09-05T12:16:01.648Z,13.70
2018-09-05T12:18:28.911Z,12.40
2018-09-05T12:20:56.040Z,13.27
2018-09-05T12:23:23.260Z,13.70
2018-09-05T12:25:50.469Z,12.33
2018-09-05T12:28:17.669Z,13.33
2018-09-05T12:30:44.932Z,13.00
2018-09-05T12:33:12.117Z,12.17
2018-09-05T12:35:39.251Z,12.80
2018-09-05T12:38:06.551Z,13.40
2018-09-05T12:40:33.679Z,11.70
2018-09-05T12:43:00.866Z,12.47
2018-09-05T12:45:28.036Z,13.30
2018-09-05T12:47:55.196Z,11.47
2018-09-05T12:50:22.429Z,12.33
2018-09-05T12:52:49.565Z,11.60
2018-09-05T12:55:16.715Z,11.63
2018-09-05T12:57:43.943Z,12.20
2018-09-05T13:00:11.161Z,12.63
2018-09-05T13:02:38.334Z,12.67
2018-09-05T13:05:05.923Z,10.80
2018-09-05T13:07:33.320Z,11.17
2018-09-05T13:10:00.501Z,12.17
2018-09-05T13:12:27.736Z,12.60
2018-09-05T13:14:54.860Z,12.63
2018-09-05T13:17:22.047Z,11.20
2018-09-05T13:19:49.200Z,12.83
2018-09-05T13:22:16.337Z,11.63
2018-09-05T13:24:43.560Z,12.00
2018-09-05T13:27:10.682Z,11.60
2018-09-05T13:29:37.810Z,10.97
2018-09-05T13:32:05.066Z,11.90
2018-09-05T13:34:32.205Z,12.47
2018-09-05T13:37:00.485Z,13.30
2018-09-05T13:39:27.810Z,12.03
2018-09-05T13:41:54.970Z,12.77
2018-09-05T13:44:22.188Z,12.17
2018-09-05T13:46:49.364Z,10.30
2018-09-05T13:49:16.569Z,12.07
2018-09-05T13:51:48.357Z,12.30
2018-09-05T13:54:15.522Z,13.80
2018-09-05T13:56:42.833Z,13.40
2018-09-05T13:59:10.043Z,11.97
2018-09-05T14:01:37.194Z,12.57
2018-09-05T14:04:04.458Z,13.37
2018-09-05T14:06:31.633Z,12.70
2018-09-05T14:08:58.777Z,13.27
2018-09-05T14:11:25.972Z,13.13
2018-09-05T14:13:53.132Z,12.73
2018-09-05T14:16:20.373Z,12.20
2018-09-05T14:18:47.632Z,12.40
2018-09-05T14:21:14.754Z,13.00
2018-09-05T14:23:42.026Z,12.00
2018-09-05T14:26:09.165Z,13.17
2018-09-05T14:28:36.376Z,13.33
2018-09-05T14:31:03.700Z,12.67
2018-09-05T14:33:30.912Z,12.20
2018-09-05T14:35:58.124Z,13.93
2018-09-05T14:38:25.315Z,13.17
2018-09-05T14:40:52.507Z,13.00
2018-09-05T14:43:19.669Z,12.73
2018-09-05T14:45:47.258Z,13.27
2018-09-05T14:48:14.475Z,12.53
2018-09-05T14:50:41.666Z,12.87
2018-09-05T14:53:08.881Z,14.10
2018-09-05T14:55:36.082Z,13.50
2018-09-05T14:58:03.312Z,12.47
2018-09-05T15:00:30.482Z,13.33
2018-09-05T15:02:57.761Z,11.30
2018-09-05T15:05:25.182Z,12.53
2018-09-05T15:07:52.392Z,12.70
2018-09-05T15:10:19.609Z,11.63
2018-09-05T15:12:46.964Z,13.60
2018-09-05T15:15:14.565Z,12.57
2018-09-05T15:17:41.889Z,12.80
2018-09-05T15:20:10.066Z,12.97
2018-09-05T15:22:37.337Z,13.73
2018-09-05T15:25:05.608Z,12.20
2018-09-05T15:27:32.748Z,12.10
2018-09-05T15:29:59.941Z,12.43
2018-09-05T15:32:27.161Z,12.93
2018-09-05T15:34:54.857Z,11.73
2018-09-05T15:37:22.046Z,12.80
2018-09-05T15:39:49.173Z,11.80
2018-09-05T15:42:16.604Z,12.23
2018-09-05T15:44:43.760Z,13.70
2018-09-05T15:47:11.076Z,13.60
2018-09-05T15:49:38.338Z,13.47
2018-09-05T15:52:05.528Z,12.80
2018-09-05T15:54:32.708Z,14.80
2018-09-05T15:57:00.065Z,12.00
2018-09-05T15:59:27.173Z,11.47
2018-09-05T16:01:54.636Z,11.83
2018-09-05T16:04:22.881Z,12.03
2018-09-05T16:06:50.036Z,12.97
2018-09-05T16:09:17.256Z,11.63
2018-09-05T16:11:44.484Z,13.30
2018-09-05T16:14:11.671Z,13.13
2018-09-05T16:16:38.909Z,13.60
2018-09-05T16:19:06.072Z,12.30
2018-09-05T16:21:33.284Z,13.23
2018-09-05T16:24:00.542Z,13.33
2018-09-05T16:26:27.715Z,13.40
2018-09-05T16:28:55.016Z,12.90
2018-09-05T16:31:22.411Z,14.00
2018-09-05T16:33:49.593Z,13.30
2018-09-05T16:36:16.928Z,12.90
2018-09-05T16:38:45.490Z,14.07
2018-09-05T16:41:12.658Z,14.83
2018-09-05T16:43:40.669Z,14.87
2018-09-05T16:46:07.929Z,14.50
2018-09-05T16:48:35.168Z,14.93
2018-09-05T16:51:02.300Z,14.50
2018-09-05T16:53:29.504Z,16.10
2018-09-05T16:55:56.692Z,15.10
2018-09-05T16:58:23.916Z,15.43
2018-09-05T17:00:51.318Z,15.70
2018-09-05T17:03:18.574Z,14.63
2018-09-05T17:05:45.758Z,14.27
2018-09-05T17:08:13.031Z,13.77
2018-09-05T17:10:40.204Z,14.10
2018-09-05T17:13:07.509Z,15.03
2018-09-05T17:15:34.845Z,15.10
2018-09-05T17:18:02.000Z,15.10
2018-09-05T17:20:29.298Z,13.63
2018-09-05T17:22:56.503Z,17.30
2018-09-05T17:25:23.649Z,18.70
2018-09-05T17:27:51.024Z,15.27
2018-09-05T17:30:18.300Z,15.20
2018-09-05T17:32:45.440Z,16.13
2018-09-05T17:35:12.785Z,14.83
2018-09-05T17:37:40.038Z,14.83
2018-09-05T17:40:07.309Z,16.97
2018-09-05T17:42:34.457Z,15.67
2018-09-05T17:45:01.847Z,15.60
2018-09-05T17:47:29.050Z,17.30
2018-09-05T17:49:56.436Z,16.00
2018-09-05T17:52:23.548Z,14.40
2018-09-05T17:54:50.890Z,16.83
2018-09-05T17:57:18.244Z,16.87
2018-09-05T17:59:45.344Z,16.43
2018-09-05T18:02:12.497Z,15.53
2018-09-05T18:04:39.633Z,16.23
2018-09-05T18:07:06.785Z,15.97
2018-09-05T18:09:34.083Z,16.63
2018-09-05T18:12:01.277Z,16.70
2018-09-05T18:14:28.589Z,17.43
2018-09-05T18:16:55.857Z,18.83
2018-09-05T18:19:23.066Z,16.67
2018-09-05T18:21:50.469Z,17.53
2018-09-05T18:24:17.978Z,17.73
2018-09-05T18:26:45.084Z,18.70
2018-09-05T18:29:12.279Z,16.57
2018-09-05T18:31:39.520Z,18.53
2018-09-05T18:34:06.659Z,15.13
2018-09-05T18:36:33.826Z,16.97
2018-09-05T18:39:01.033Z,18.10
2018-09-05T18:41:28.804Z,18.20
2018-09-05T18:43:56.055Z,18.87
2018-09-05T18:46:23.471Z,19.90
2018-09-05T18:48:50.681Z,20.23
2018-09-05T18:51:18.164Z,19.13
2018-09-05T18:53:45.297Z,19.73
2018-09-05T18:56:12.521Z,20.70
2018-09-05T18:58:39.710Z,21.17
2018-09-05T19:01:06.869Z,22.20
2018-09-05T19:03:34.475Z,20.93
2018-09-05T19:06:01.704Z,21.60
2018-09-05T19:08:28.873Z,21.43
2018-09-05T19:10:56.138Z,21.50
2018-09-05T19:13:23.323Z,23.90
2018-09-05T19:15:50.460Z,21.40
2018-09-05T19:18:17.831Z,21.90
2018-09-05T19:20:45.057Z,23.87
2018-09-05T19:23:12.253Z,33.17
2018-09-05T19:25:39.532Z,25.60
2018-09-05T19:28:13.382Z,20.87
2018-09-05T19:30:42.240Z,20.13
2018-09-05T19:33:09.529Z,21.83
2018-09-05T19:35:36.845Z,25.13
2018-09-05T19:38:04.055Z,26.97
2018-09-05T19:40:31.317Z,21.90
2018-09-05T19:42:58.594Z,23.03
2018-09-05T19:45:25.764Z,24.07
2018-09-05T19:47:53.261Z,22.00
2018-09-05T19:50:20.502Z,26.00
2018-09-05T19:52:47.676Z,24.13
2018-09-05T19:55:16.038Z,25.80
2018-09-05T19:57:43.365Z,24.90
2018-09-05T20:00:10.685Z,26.40
2018-09-05T20:02:37.889Z,28.03
2018-09-05T20:05:05.358Z,28.73
2018-09-05T20:07:32.621Z,25.37
2018-09-05T20:09:59.777Z,26.43
2018-09-05T20:12:26.983Z,23.83
2018-09-05T20:14:54.088Z,25.57
2018-09-05T20:17:21.349Z,23.23
2018-09-05T20:19:48.473Z,24.10
2018-09-05T20:22:15.701Z,24.27
2018-09-05T20:24:42.937Z,23.60
2018-09-05T20:27:10.237Z,21.00
2018-09-05T20:29:37.597Z,20.53
2018-09-05T20:32:05.096Z,21.97
2018-09-05T20:34:32.251Z,21.30
2018-09-05T20:36:59.508Z,23.33
2018-09-05T20:39:26.651Z,21.27
2018-09-05T20:41:53.781Z,21.50
2018-09-05T20:44:21.055Z,22.37
2018-09-05T20:46:48.217Z,20.43
2018-09-05T20:49:15.461Z,24.13
2018-09-05T20:51:42.771Z,22.00
2018-09-05T20:54:09.920Z,22.50
2018-09-05T20:56:37.161Z,21.03
2018-09-05T20:59:04.632Z,23.20
2018-09-05T21:01:31.821Z,22.90
2018-09-05T21:03:59.013Z,24.07
2018-09-05T21:06:26.189Z,23.10
2018-09-05T21:08:53.327Z,22.10
2018-09-05T21:11:20.517Z,25.40
2018-09-05T21:13:47.626Z,25.50
2018-09-05T21:16:15.265Z,21.43
2018-09-05T21:18:42.517Z,21.90
2018-09-05T21:21:09.648Z,24.23
2018-09-05T21:23:36.893Z,22.80
2018-09-05T21:26:04.060Z,26.17
2018-09-05T21:28:31.229Z,22.87
2018-09-05T21:30:58.406Z,24.83
2018-09-05T21:33:25.620Z,24.93
2018-09-05T21:35:52.776Z,24.60
2018-09-05T21:38:20.050Z,22.87
2018-09-05T21:40:47.180Z,25.00
2018-09-05T21:43:14.414Z,24.33
2018-09-05T21:45:41.735Z,23.10
2018-09-05T21:48:08.922Z,23.70
2018-09-05T21:50:36.199Z,22.57
2018-09-05T21:53:03.847Z,25.87
2018-09-05T21:55:31.037Z,20.67
2018-09-05T21:57:58.332Z,21.57
2018-09-05T22:00:25.545Z,23.13
2018-09-05T22:02:52.701Z,22.30
2018-09-05T22:05:19.859Z,22.40
2018-09-05T22:07:47.021Z,21.20
2018-09-05T22:10:14.190Z,24.47
2018-09-05T22:12:41.364Z,20.60
2018-09-05T22:15:08.536Z,23.13
2018-09-05T22:17:35.787Z,21.93
2018-09-05T22:20:02.999Z,21.57
2018-09-05T22:22:30.115Z,23.97
2018-09-05T22:24:57.331Z,21.30
2018-09-05T22:27:24.513Z,23.17
2018-09-05T22:29:51.652Z,23.17
2018-09-05T22:32:19.048Z,20.83
2018-09-05T22:34:46.129Z,21.47
2018-09-05T22:37:13.220Z,20.33
2018-09-05T22:39:40.449Z,28.43
2018-09-05T22:42:07.646Z,21.70
2018-09-05T22:44:46.209Z,21.80
2018-09-05T22:47:24.945Z,23.97
2018-09-05T22:50:07.839Z,21.93
2018-09-05T22:54:56.228Z,21.27
2018-09-05T22:57:40.471Z,19.77
2018-09-05T23:04:28.724Z,21.37
2018-09-05T23:09:10.536Z,20.30
2018-09-05T23:11:49.916Z,21.87
2018-09-05T23:14:28.509Z,20.00
2018-09-05T23:19:24.608Z,19.73
2018-09-05T23:21:51.704Z,24.20
2018-09-05T23:24:18.884Z,20.80
2018-09-05T23:26:46.199Z,21.60
2018-09-05T23:29:13.361Z,22.77
2018-09-05T23:31:40.506Z,24.53
2018-09-05T23:34:07.753Z,23.30
2018-09-05T23:36:34.878Z,21.07
2018-09-05T23:39:02.152Z,21.77
2018-09-05T23:41:29.296Z,20.47
2018-09-05T23:43:56.364Z,22.13
2018-09-05T23:46:23.549Z,22.07
2018-09-05T23:48:50.685Z,19.53
2018-09-05T23:51:17.862Z,20.57
2018-09-05T23:53:44.990Z,18.93
2018-09-05T23:56:12.145Z,25.40
2018-09-05T23:58:39.452Z,20.00
